PWSweather.com
Personal Weather Stations
Station Observations
WARREN
Narre Warren , MelbourneAU

Narre Warren MelbourneAU

Lat: -38.0314269, Lon: 145.3160851

Elevation: 24

Station Type: Digiteck

http://www.aussiedownunder.net/

High Low Average
Temperature 85.3°F29.6°F 61.7°F16.5°F 75.4°F24.1°F
Dew Point 56.4°F13.6°F 47.6°F8.7°F 52.6°F11.4°F
Winds 6.9 mph -11.1 mph - 0.1 mph 0.2 mph 2.6 mph 4.2 mph
Wind Gusts 18.3 mph29.5 mph 2.2 mph3.5 mph 8.0 mph12.9 mph
Humidity 66% 35% 46%
Pressure 29.57 in1001.40 in 29.33 in993.20 in -
Precipitation 0.00 in0.00 in - -
Hour Temp Dew Point Humidity Winds Wind Gusts Pressure Precip Precip Rate Daily Precip Total
12:00 AM 61.7°F16.5°C 50.2°F10.1°C 66% 0.1 mph NNE0.2 kmh NNE 2.2 mph3.5 kmh 29.57 in1001.4 mb 0.00 in0.0 mm 0.00 in0.0 mm 0.00 in0.0 mm
12:15 AM 63.3°F17.4°C 50.1°F10.1°C 62% 0.3 mph NW0.5 kmh NW 3.8 mph6.1 kmh 29.57 in1001.4 mb 0.00 in0.0 mm 0.00 in0.0 mm 0.00 in0.0 mm
12:30 AM 68.2°F20.1°C 49.9°F9.9°C 52% 2.2 mph NW3.5 kmh NW 6.0 mph9.7 kmh 29.56 in1001.0 mb 0.00 in0.0 mm 0.00 in0.0 mm 0.00 in0.0 mm
12:45 AM 68.5°F20.3°C 49.7°F9.8°C 51% 1.0 mph WNW1.6 kmh WNW 6.9 mph11.1 kmh 29.56 in1001.0 mb 0.00 in0.0 mm 0.00 in0.0 mm 0.00 in0.0 mm
01:00 AM 68.2°F20.1°C 50.4°F10.2°C 53% 0.6 mph W1.0 kmh W 3.8 mph6.1 kmh 29.56 in1001.0 mb 0.00 in0.0 mm 0.00 in0.0 mm 0.00 in0.0 mm
01:15 AM 68.7°F20.4°C 50.4°F10.2°C 52% 1.7 mph NNW2.7 kmh NNW 6.0 mph9.7 kmh 29.56 in1001.0 mb 0.00 in0.0 mm 0.00 in0.0 mm 0.00 in0.0 mm
01:30 AM 68.7°F20.4°C 50.9°F10.5°C 53% 0.9 mph NW1.4 kmh NW 5.4 mph8.7 kmh 29.56 in1001.0 mb 0.00 in0.0 mm 0.00 in0.0 mm 0.00 in0.0 mm
01:45 AM 68.2°F20.1°C 50.4°F10.2°C 53% 0.5 mph NW0.8 kmh NW 3.8 mph6.1 kmh 29.55 in1000.7 mb 0.00 in0.0 mm 0.00 in0.0 mm 0.00 in0.0 mm
02:00 AM 67.5°F19.7°C 50.8°F10.4°C 55% 0.4 mph NW0.6 kmh NW 3.8 mph6.1 kmh 29.56 in1001.0 mb 0.00 in0.0 mm 0.00 in0.0 mm 0.00 in0.0 mm
02:15 AM 68.0°F20.0°C 50.8°F10.4°C 54% 1.2 mph NW1.9 kmh NW 3.8 mph6.1 kmh 29.55 in1000.7 mb 0.00 in0.0 mm 0.00 in0.0 mm 0.00 in0.0 mm
02:30 AM 68.2°F20.1°C 50.9°F10.5°C 54% 0.8 mph WNW1.3 kmh WNW 3.8 mph6.1 kmh 29.55 in1000.7 mb 0.00 in0.0 mm 0.00 in0.0 mm 0.00 in0.0 mm
02:45 AM 67.6°F19.8°C 51.4°F10.8°C 56% 0.8 mph NW1.3 kmh NW 3.8 mph6.1 kmh 29.54 in1000.3 mb 0.00 in0.0 mm 0.00 in0.0 mm 0.00 in0.0 mm
03:00 AM 67.8°F19.9°C 51.6°F10.9°C 56% 0.9 mph NW1.4 kmh NW 4.5 mph7.2 kmh 29.54 in1000.3 mb 0.00 in0.0 mm 0.00 in0.0 mm 0.00 in0.0 mm
03:15 AM 68.2°F20.1°C 50.9°F10.5°C 54% 1.7 mph NW2.7 kmh NW 6.9 mph11.1 kmh 29.53 in1000.0 mb 0.00 in0.0 mm 0.00 in0.0 mm 0.00 in0.0 mm
03:30 AM 68.2°F20.1°C 50.9°F10.5°C 54% 0.9 mph NW1.4 kmh NW 6.9 mph11.1 kmh 29.53 in1000.0 mb 0.00 in0.0 mm 0.00 in0.0 mm 0.00 in0.0 mm
03:45 AM 68.0°F20.0°C 50.8°F10.4°C 54% 0.9 mph NNW1.4 kmh NNW 4.5 mph7.2 kmh 29.53 in1000.0 mb 0.00 in0.0 mm 0.00 in0.0 mm 0.00 in0.0 mm
04:00 AM 68.7°F20.4°C 50.9°F10.5°C 53% 2.4 mph NW3.9 kmh NW 7.6 mph12.2 kmh 29.53 in1000.0 mb 0.00 in0.0 mm 0.00 in0.0 mm 0.00 in0.0 mm
04:15 AM 68.5°F20.3°C 50.8°F10.4°C 53% 2.1 mph NW3.4 kmh NW 6.9 mph11.1 kmh 29.52 in999.7 mb 0.00 in0.0 mm 0.00 in0.0 mm 0.00 in0.0 mm
04:30 AM 68.5°F20.3°C 50.8°F10.4°C 53% 2.7 mph NW4.3 kmh NW 8.3 mph13.4 kmh 29.52 in999.7 mb 0.00 in0.0 mm 0.00 in0.0 mm 0.00 in0.0 mm
04:45 AM 68.4°F20.2°C 50.6°F10.3°C 53% 2.1 mph NNW3.4 kmh NNW 7.6 mph12.2 kmh 29.52 in999.7 mb 0.00 in0.0 mm 0.00 in0.0 mm 0.00 in0.0 mm
05:00 AM 68.2°F20.1°C 50.9°F10.5°C 54% 2.4 mph NW3.9 kmh NW 6.9 mph11.1 kmh 29.53 in1000.0 mb 0.00 in0.0 mm 0.00 in0.0 mm 0.00 in0.0 mm
05:15 AM 68.2°F20.1°C 50.9°F10.5°C 54% 2.7 mph W4.3 kmh W 8.3 mph13.4 kmh 29.53 in1000.0 mb 0.00 in0.0 mm 0.00 in0.0 mm 0.00 in0.0 mm
05:30 AM 68.4°F20.2°C 50.6°F10.3°C 53% 3.4 mph NW5.5 kmh NW 7.6 mph12.2 kmh 29.53 in1000.0 mb 0.00 in0.0 mm 0.00 in0.0 mm 0.00 in0.0 mm
05:45 AM 68.0°F20.0°C 50.8°F10.4°C 54% 3.2 mph NW5.1 kmh NW 8.3 mph13.4 kmh 29.52 in999.7 mb 0.00 in0.0 mm 0.00 in0.0 mm 0.00 in0.0 mm
06:00 AM 67.8°F19.9°C 51.1°F10.6°C 55% 2.2 mph WNW3.5 kmh WNW 5.4 mph8.7 kmh 29.53 in1000.0 mb 0.00 in0.0 mm 0.00 in0.0 mm 0.00 in0.0 mm
06:15 AM 68.4°F20.2°C 50.6°F10.3°C 53% 4.0 mph NW6.4 kmh NW 11.4 mph18.3 kmh 29.53 in1000.0 mb 0.00 in0.0 mm 0.00 in0.0 mm 0.00 in0.0 mm
06:30 AM 68.7°F20.4°C 50.9°F10.5°C 53% 4.1 mph NNW6.6 kmh NNW 12.1 mph19.5 kmh 29.54 in1000.3 mb 0.00 in0.0 mm 0.00 in0.0 mm 0.00 in0.0 mm
06:45 AM 69.1°F20.6°C 50.7°F10.4°C 52% 3.8 mph W6.1 kmh W 13.6 mph21.9 kmh 29.54 in1000.3 mb 0.00 in0.0 mm 0.00 in0.0 mm 0.00 in0.0 mm
07:00 AM 69.8°F21.0°C 50.3°F10.2°C 50% 5.2 mph NW8.4 kmh NW 13.6 mph21.9 kmh 29.55 in1000.7 mb 0.00 in0.0 mm 0.00 in0.0 mm 0.00 in0.0 mm
07:15 AM 70.2°F21.2°C 50.7°F10.4°C 50% 4.0 mph W6.4 kmh W 11.4 mph18.3 kmh 29.55 in1000.7 mb 0.00 in0.0 mm 0.00 in0.0 mm 0.00 in0.0 mm
07:30 AM 73.0°F22.8°C 50.5°F10.3°C 45% 3.0 mph NW4.8 kmh NW 8.3 mph13.4 kmh 29.55 in1000.7 mb 0.00 in0.0 mm 0.00 in0.0 mm 0.00 in0.0 mm
07:45 AM 73.0°F22.8°C 50.5°F10.3°C 45% 5.6 mph NW9.0 kmh NW 12.1 mph19.5 kmh 29.54 in1000.3 mb 0.00 in0.0 mm 0.00 in0.0 mm 0.00 in0.0 mm
08:00 AM 74.3°F23.5°C 51.6°F10.9°C 45% 6.0 mph WNW9.7 kmh WNW 14.5 mph23.3 kmh 29.55 in1000.7 mb 0.00 in0.0 mm 0.00 in0.0 mm 0.00 in0.0 mm
08:15 AM 75.7°F24.3°C 52.3°F11.3°C 44% 5.2 mph WNW8.4 kmh WNW 18.3 mph29.5 kmh 29.55 in1000.7 mb 0.00 in0.0 mm 0.00 in0.0 mm 0.00 in0.0 mm
08:30 AM 75.7°F24.3°C 52.3°F11.3°C 44% 5.3 mph NW8.5 kmh NW 14.5 mph23.3 kmh 29.55 in1000.7 mb 0.00 in0.0 mm 0.00 in0.0 mm 0.00 in0.0 mm
08:45 AM 76.1°F24.5°C 52.6°F11.4°C 44% 5.5 mph NW8.9 kmh NW 14.5 mph23.3 kmh 29.56 in1001.0 mb 0.00 in0.0 mm 0.00 in0.0 mm 0.00 in0.0 mm
09:00 AM 77.0°F25.0°C 52.8°F11.6°C 43% 6.9 mph NW11.1 kmh NW 14.5 mph23.3 kmh 29.56 in1001.0 mb 0.00 in0.0 mm 0.00 in0.0 mm 0.00 in0.0 mm
09:15 AM 75.4°F24.1°C 52.0°F11.1°C 44% 6.6 mph WNW10.6 kmh WNW 16.8 mph27.0 kmh 29.56 in1001.0 mb 0.00 in0.0 mm 0.00 in0.0 mm 0.00 in0.0 mm
09:30 AM 77.2°F25.1°C 53.0°F11.7°C 43% 4.5 mph WNW7.2 kmh WNW 10.7 mph17.2 kmh 29.56 in1001.0 mb 0.00 in0.0 mm 0.00 in0.0 mm 0.00 in0.0 mm
09:45 AM 79.2°F26.2°C 53.5°F11.9°C 41% 3.6 mph NW5.8 kmh NW 10.7 mph17.2 kmh 29.56 in1001.0 mb 0.00 in0.0 mm 0.00 in0.0 mm 0.00 in0.0 mm
10:00 AM 80.4°F26.9°C 54.6°F12.6°C 41% 3.4 mph NW5.5 kmh NW 10.7 mph17.2 kmh 29.55 in1000.7 mb 0.00 in0.0 mm 0.00 in0.0 mm 0.00 in0.0 mm
10:15 AM 82.2°F27.9°C 54.1°F12.3°C 38% 3.1 mph NNW5.0 kmh NNW 9.2 mph14.8 kmh 29.55 in1000.7 mb 0.00 in0.0 mm 0.00 in0.0 mm 0.00 in0.0 mm
10:30 AM 81.7°F27.6°C 54.4°F12.4°C 39% 4.1 mph N6.6 kmh N 9.8 mph15.8 kmh 29.55 in1000.7 mb 0.00 in0.0 mm 0.00 in0.0 mm 0.00 in0.0 mm
10:45 AM 82.0°F27.8°C 54.0°F12.2°C 38% 4.6 mph W7.4 kmh W 12.1 mph19.5 kmh 29.55 in1000.7 mb 0.00 in0.0 mm 0.00 in0.0 mm 0.00 in0.0 mm
11:00 AM 81.7°F27.6°C 54.4°F12.4°C 39% 3.7 mph NNW6.0 kmh NNW 10.7 mph17.2 kmh 29.54 in1000.3 mb 0.00 in0.0 mm 0.00 in0.0 mm 0.00 in0.0 mm
11:15 AM 82.0°F27.8°C 54.0°F12.2°C 38% 4.2 mph NW6.8 kmh NW 11.4 mph18.3 kmh 29.54 in1000.3 mb 0.00 in0.0 mm 0.00 in0.0 mm 0.00 in0.0 mm
11:30 AM 83.3°F28.5°C 55.8°F13.2°C 39% 3.6 mph NW5.8 kmh NW 7.6 mph12.2 kmh 29.53 in1000.0 mb 0.00 in0.0 mm 0.00 in0.0 mm 0.00 in0.0 mm
11:45 AM 81.9°F27.7°C 55.2°F12.9°C 40% 4.1 mph NNW6.6 kmh NNW 11.4 mph18.3 kmh 29.53 in1000.0 mb 0.00 in0.0 mm 0.00 in0.0 mm 0.00 in0.0 mm
12:00 PM 81.9°F27.7°C 55.2°F12.9°C 40% 3.5 mph N5.6 kmh N 7.6 mph12.2 kmh 29.52 in999.7 mb 0.00 in0.0 mm 0.00 in0.0 mm 0.00 in0.0 mm
12:15 PM 82.9°F28.3°C 56.2°F13.4°C 40% 3.2 mph NW5.1 kmh NW 7.6 mph12.2 kmh 29.51 in999.3 mb 0.00 in0.0 mm 0.00 in0.0 mm 0.00 in0.0 mm
12:30 PM 83.1°F28.4°C 55.6°F13.1°C 39% 2.6 mph NW4.2 kmh NW 6.9 mph11.1 kmh 29.51 in999.3 mb 0.00 in0.0 mm 0.00 in0.0 mm 0.00 in0.0 mm
12:45 PM 82.0°F27.8°C 54.7°F12.6°C 39% 4.3 mph NW6.9 kmh NW 9.8 mph15.8 kmh 29.49 in998.6 mb 0.00 in0.0 mm 0.00 in0.0 mm 0.00 in0.0 mm
01:00 PM 82.4°F28.0°C 55.0°F12.8°C 39% 4.2 mph NW6.8 kmh NW 10.7 mph17.2 kmh 29.49 in998.6 mb 0.00 in0.0 mm 0.00 in0.0 mm 0.00 in0.0 mm
01:15 PM 83.3°F28.5°C 55.8°F13.2°C 39% 4.8 mph NW7.7 kmh NW 9.8 mph15.8 kmh 29.48 in998.3 mb 0.00 in0.0 mm 0.00 in0.0 mm 0.00 in0.0 mm
01:30 PM 83.7°F28.7°C 56.1°F13.4°C 39% 3.4 mph N5.5 kmh N 8.3 mph13.4 kmh 29.48 in998.3 mb 0.00 in0.0 mm 0.00 in0.0 mm 0.00 in0.0 mm
01:45 PM 85.3°F29.6°C 56.1°F13.4°C 37% 3.4 mph NNW5.5 kmh NNW 9.8 mph15.8 kmh 29.46 in997.6 mb 0.00 in0.0 mm 0.00 in0.0 mm 0.00 in0.0 mm
02:00 PM 84.0°F28.9°C 56.4°F13.6°C 39% 4.2 mph NW6.8 kmh NW 10.7 mph17.2 kmh 29.46 in997.6 mb 0.00 in0.0 mm 0.00 in0.0 mm 0.00 in0.0 mm
02:15 PM 82.6°F28.1°C 55.2°F12.9°C 39% 3.7 mph NW6.0 kmh NW 9.8 mph15.8 kmh 29.45 in997.3 mb 0.00 in0.0 mm 0.00 in0.0 mm 0.00 in0.0 mm
02:30 PM 84.0°F28.9°C 55.7°F13.2°C 38% 2.9 mph NW4.7 kmh NW 7.6 mph12.2 kmh 29.45 in997.3 mb 0.00 in0.0 mm 0.00 in0.0 mm 0.00 in0.0 mm
02:45 PM 82.2°F27.9°C 54.1°F12.3°C 38% 4.5 mph NW7.2 kmh NW 11.4 mph18.3 kmh 29.44 in997.0 mb 0.00 in0.0 mm 0.00 in0.0 mm 0.00 in0.0 mm
03:00 PM 82.4°F28.0°C 55.0°F12.8°C 39% 3.9 mph NNW6.3 kmh NNW 9.2 mph14.8 kmh 29.44 in997.0 mb 0.00 in0.0 mm 0.00 in0.0 mm 0.00 in0.0 mm
03:15 PM 82.2°F27.9°C 53.4°F11.9°C 37% 4.7 mph NW7.6 kmh NW 9.8 mph15.8 kmh 29.44 in997.0 mb 0.00 in0.0 mm 0.00 in0.0 mm 0.00 in0.0 mm
03:30 PM 82.2°F27.9°C 54.1°F12.3°C 38% 2.5 mph NW4.0 kmh NW 12.1 mph19.5 kmh 29.43 in996.6 mb 0.00 in0.0 mm 0.00 in0.0 mm 0.00 in0.0 mm
03:45 PM 81.0°F27.2°C 54.4°F12.4°C 40% 4.2 mph NW6.8 kmh NW 9.2 mph14.8 kmh 29.44 in997.0 mb 0.00 in0.0 mm 0.00 in0.0 mm 0.00 in0.0 mm
04:00 PM 81.1°F27.3°C 53.9°F12.2°C 39% 3.0 mph NW4.8 kmh NW 9.8 mph15.8 kmh 29.44 in997.0 mb 0.00 in0.0 mm 0.00 in0.0 mm 0.00 in0.0 mm
04:15 PM 79.9°F26.6°C 54.8°F12.7°C 42% 2.5 mph N4.0 kmh N 7.6 mph12.2 kmh 29.45 in997.3 mb 0.00 in0.0 mm 0.00 in0.0 mm 0.00 in0.0 mm
04:30 PM 79.3°F26.3°C 54.3°F12.4°C 42% 1.9 mph NNW3.1 kmh NNW 6.0 mph9.7 kmh 29.44 in997.0 mb 0.00 in0.0 mm 0.00 in0.0 mm 0.00 in0.0 mm
04:45 PM 79.0°F26.1°C 54.0°F12.2°C 42% 0.6 mph NW1.0 kmh NW 3.8 mph6.1 kmh 29.44 in997.0 mb 0.00 in0.0 mm 0.00 in0.0 mm 0.00 in0.0 mm
05:00 PM 78.8°F26.0°C 53.8°F12.1°C 42% 0.5 mph NNW0.8 kmh NNW 3.1 mph5.0 kmh 29.45 in997.3 mb 0.00 in0.0 mm 0.00 in0.0 mm 0.00 in0.0 mm
05:15 PM 78.8°F26.0°C 53.8°F12.1°C 42% 0.3 mph NW0.5 kmh NW 3.1 mph5.0 kmh 29.46 in997.6 mb 0.00 in0.0 mm 0.00 in0.0 mm 0.00 in0.0 mm
05:30 PM 79.3°F26.3°C 54.9°F12.7°C 43% 0.2 mph NNW0.3 kmh NNW 2.2 mph3.5 kmh 29.45 in997.3 mb 0.00 in0.0 mm 0.00 in0.0 mm 0.00 in0.0 mm
05:45 PM 79.2°F26.2°C 54.1°F12.3°C 42% 0.3 mph N0.5 kmh N 3.1 mph5.0 kmh 29.45 in997.3 mb 0.00 in0.0 mm 0.00 in0.0 mm 0.00 in0.0 mm
06:00 PM 78.4°F25.8°C 54.1°F12.3°C 43% 0.9 mph NNW1.4 kmh NNW 3.8 mph6.1 kmh 29.44 in997.0 mb 0.00 in0.0 mm 0.00 in0.0 mm 0.00 in0.0 mm
06:15 PM 77.9°F25.5°C 53.6°F12.0°C 43% 1.8 mph N2.9 kmh N 6.0 mph9.7 kmh 29.44 in997.0 mb 0.00 in0.0 mm 0.00 in0.0 mm 0.00 in0.0 mm
06:30 PM 77.7°F25.4°C 53.5°F11.9°C 43% 1.2 mph N1.9 kmh N 3.8 mph6.1 kmh 29.43 in996.6 mb 0.00 in0.0 mm 0.00 in0.0 mm 0.00 in0.0 mm
06:45 PM 77.0°F25.0°C 53.5°F11.9°C 44% 1.0 mph NNE1.6 kmh NNE 5.4 mph8.7 kmh 29.44 in997.0 mb 0.00 in0.0 mm 0.00 in0.0 mm 0.00 in0.0 mm
07:00 PM 76.3°F24.6°C 54.0°F12.2°C 46% 1.1 mph NE1.8 kmh NE 3.8 mph6.1 kmh 29.42 in996.3 mb 0.00 in0.0 mm 0.00 in0.0 mm 0.00 in0.0 mm
07:15 PM 75.7°F24.3°C 54.1°F12.3°C 47% 1.9 mph NNE3.1 kmh NNE 6.0 mph9.7 kmh 29.41 in995.9 mb 0.00 in0.0 mm 0.00 in0.0 mm 0.00 in0.0 mm
07:30 PM 75.7°F24.3°C 54.1°F12.3°C 47% 1.7 mph NNW2.7 kmh NNW 5.4 mph8.7 kmh 29.41 in995.9 mb 0.00 in0.0 mm 0.00 in0.0 mm 0.00 in0.0 mm
07:45 PM 75.2°F24.0°C 54.2°F12.3°C 48% 1.5 mph NE2.4 kmh NE 6.9 mph11.1 kmh 29.41 in995.9 mb 0.00 in0.0 mm 0.00 in0.0 mm 0.00 in0.0 mm
08:00 PM 75.0°F23.9°C 54.0°F12.2°C 48% 1.3 mph ENE2.1 kmh ENE 6.0 mph9.7 kmh 29.40 in995.6 mb 0.00 in0.0 mm 0.00 in0.0 mm 0.00 in0.0 mm
08:15 PM 74.8°F23.8°C 54.4°F12.4°C 49% 0.4 mph NNE0.6 kmh NNE 3.8 mph6.1 kmh 29.40 in995.6 mb 0.00 in0.0 mm 0.00 in0.0 mm 0.00 in0.0 mm
08:30 PM 74.8°F23.8°C 54.4°F12.4°C 49% 0.6 mph ENE1.0 kmh ENE 5.4 mph8.7 kmh 29.40 in995.6 mb 0.00 in0.0 mm 0.00 in0.0 mm 0.00 in0.0 mm
08:45 PM 75.0°F23.9°C 53.5°F11.9°C 47% 2.3 mph NNW3.7 kmh NNW 6.9 mph11.1 kmh 29.40 in995.6 mb 0.00 in0.0 mm 0.00 in0.0 mm 0.00 in0.0 mm
09:00 PM 75.9°F24.4°C 53.1°F11.7°C 45% 3.0 mph N4.8 kmh N 6.0 mph9.7 kmh 29.39 in995.3 mb 0.00 in0.0 mm 0.00 in0.0 mm 0.00 in0.0 mm
09:15 PM 76.1°F24.5°C 52.6°F11.4°C 44% 2.2 mph NW3.5 kmh NW 9.2 mph14.8 kmh 29.40 in995.6 mb 0.00 in0.0 mm 0.00 in0.0 mm 0.00 in0.0 mm
09:30 PM 75.0°F23.9°C 52.3°F11.3°C 45% 0.9 mph NNE1.4 kmh NNE 5.4 mph8.7 kmh 29.40 in995.6 mb 0.00 in0.0 mm 0.00 in0.0 mm 0.00 in0.0 mm
09:45 PM 74.5°F23.6°C 52.4°F11.3°C 46% 0.9 mph NE1.4 kmh NE 5.4 mph8.7 kmh 29.39 in995.3 mb 0.00 in0.0 mm 0.00 in0.0 mm 0.00 in0.0 mm
10:00 PM 74.7°F23.7°C 51.9°F11.1°C 45% 0.8 mph N1.3 kmh N 7.6 mph12.2 kmh 29.39 in995.3 mb 0.00 in0.0 mm 0.00 in0.0 mm 0.00 in0.0 mm
10:15 PM 74.7°F23.7°C 51.3°F10.7°C 44% 0.7 mph N1.1 kmh N 3.8 mph6.1 kmh 29.38 in994.9 mb 0.00 in0.0 mm 0.00 in0.0 mm 0.00 in0.0 mm
10:30 PM 73.9°F23.3°C 50.7°F10.4°C 44% 0.3 mph WNW0.5 kmh WNW 3.1 mph5.0 kmh 29.39 in995.3 mb 0.00 in0.0 mm 0.00 in0.0 mm 0.00 in0.0 mm
10:45 PM 74.3°F23.5°C 48.4°F9.1°C 40% 0.6 mph NNW1.0 kmh NNW 5.4 mph8.7 kmh 29.38 in994.9 mb 0.00 in0.0 mm 0.00 in0.0 mm 0.00 in0.0 mm
11:00 PM 76.8°F24.9°C 47.9°F8.8°C 36% 3.2 mph NW5.1 kmh NW 17.4 mph28.0 kmh 29.37 in994.6 mb 0.00 in0.0 mm 0.00 in0.0 mm 0.00 in0.0 mm
11:15 PM 77.7°F25.4°C 47.9°F8.8°C 35% 3.3 mph NW5.3 kmh NW 9.2 mph14.8 kmh 29.36 in994.2 mb 0.00 in0.0 mm 0.00 in0.0 mm 0.00 in0.0 mm
11:30 PM 77.4°F25.2°C 47.6°F8.7°C 35% 2.7 mph NNW4.3 kmh NNW 7.6 mph12.2 kmh 29.34 in993.6 mb 0.00 in0.0 mm 0.00 in0.0 mm 0.00 in0.0 mm
11:45 PM 77.7°F25.4°C 48.7°F9.3°C 36% 3.0 mph NW4.8 kmh NW 13.0 mph20.9 kmh 29.33 in993.2 mb 0.00 in0.0 mm 0.00 in0.0 mm 0.00 in0.0 mm